Nearby METAR Reports

 

KFWA - Fort Wayne, Indiana, USA
Distance from station: ENE 19mi, 31km
Updated: Wed, 18-Oct-2017 6:54pm EDT
Clear
Clear
 Wind from SSW
Wind: SSW 9 mph , 15 km/h
Temperature: 61°F , 16°C
Dew Point: 39°F , 4°C
Humidity: 45%
Barometer: 30.14 inHg , 1020.7 hPa
Clouds: Clear
Visibility: 10 miles , 16 km
2017/10/18 22:54 KFWA 182254Z 20008KT 10SM CLR 16/04 A3014 RMK AO2 SLP209 T01610039
KASW - Warsaw Muni, Indiana, USA
Distance from station: NNW 28mi, 45km
Updated: Wed, 18-Oct-2017 7:35pm EDT
Clear
Clear
 Wind from S
Wind: S 5 mph , 7 km/h
Temperature: 61°F , 16°C
Dew Point: 41°F , 5°C
Humidity: 48%
Barometer: 30.11 inHg , 1019.6 hPa
Clouds: Clear
Visibility: 10 miles , 16 km
2017/10/18 23:35 KASW 182335Z AUTO 18004KT 10SM CLR 16/05 A3011 RMK AO2
 
KMZZ - Marion Muni, Indiana, USA
Distance from station: SSW 32mi, 51km
Updated: Wed, 18-Oct-2017 7:36pm EDT
Clear
Clear
 Wind from S
Wind: S 5 mph , 7 km/h
Temperature: 54°F , 12°C
Dew Point: 43°F , 6°C
Humidity: 67%
Barometer: 30.15 inHg , 1021 hPa
Clouds: Clear
Visibility: 7 miles , 11 km
2017/10/18 23:36 KMZZ 182336Z AUTO 19004KT 7SM CLR 12/06 A3015 RMK AO2
KRCR - Rochester, Indiana, USA
Distance from station: WNW 35mi, 56km
Updated: Fri, 22-Sep-2017 12:33pm EDT
NOT Current
Clear
Clear
 Wind from calm
Wind: Calm
Temperature: 91°F , 33°C
Heat Index: 94°F , 34°C
Dew Point: 66°F , 19°C
Humidity: 44%
Barometer: 30.12 inHg , 1020 hPa
Clouds: Clear
Visibility: 10 miles , 16 km
2017/09/22 16:33 KRCR 221633Z AUTO 00000KT 10SM CLR 33/19 A3012 RMK AO2
 
KGWB - Auburn Dekalb C, Indiana, USA
Distance from station: NE 36mi, 58km
Updated: Wed, 18-Oct-2017 7:35pm EDT
Clear
Clear
 Wind from calm
Wind: Calm
Temperature: 57°F , 14°C
Dew Point: 39°F , 4°C
Humidity: 51%
Barometer: 30.13 inHg , 1020.3 hPa
Clouds: Clear
Visibility: 10 miles , 16 km
2017/10/18 23:35 KGWB 182335Z AUTO 00000KT 10SM CLR 14/04 A3013 RMK AO2
KGUS - Grissom Afb/Peru, Indiana, USA
Distance from station: WSW 38mi, 60km
Updated: Wed, 18-Oct-2017 6:56pm EDT
Clear
Clear
 Wind from S
Wind: S 7 mph , 11 km/h
Temperature: 61°F , 16°C
Dew Point: 45°F , 7°C
Humidity: 55%
Barometer: 30.12 inHg , 1020 hPa
Clouds: Clear
Visibility: 10 miles , 16 km
2017/10/18 22:56 KGUS 182256Z AUTO 18006KT 10SM CLR 16/07 A3012 RMK AO2 SLP204 T01640065 $